Weather observations for the past three days for
Wenatchee - Pangborn Memorial Airport
Metric (Imperial)
Date Time (pdt) Wind (kph) Vis. (km) Weather Sky Cond. Temperature (ºC) Relative Humidity Wind Chill (°C) Heat Index (°C) Pressure Precipitation (cm)
Air Dwpt 6 hour altimeter (cm) sea level (mb) 1 hr 3 hr 6 hr
Max. Min.
05 14:55 SE 13 16.09 Fair CLR 27.8 4.4 22% 27 75.77 1009.2
05 13:55 S 13 16.09 Fair CLR 27.2 3.9 22% 26 75.82 1009.8
05 12:55 SE 13 16.09 Fair CLR 26.1 5 26% 26 75.84 1010.3
05 11:55 E 6 16.09 Fair CLR 23.9 5.6 31% 25 75.9 1011.0
05 10:55 Calm 16.09 Fair CLR 22.8 6.7 22.8 14.4 35% 75.92 1011.4
05 09:55 Vrbl 6 16.09 Fair CLR 21.1 6.7 39% 75.95 1011.6
05 08:55 W 11 16.09 Fair CLR 18.9 6.7 45% 75.95 1011.8
05 07:55 Calm 16.09 Fair CLR 17.8 7.8 52% 75.95 1011.6
05 06:55 E 6 16.09 Fair CLR 15.6 7.8 60% 75.9 1011.1
05 05:55 W 11 16.09 Fair CLR 15 7.2 60% 75.84 1010.2
05 04:55 SW 7 16.09 Fair CLR 16.1 7.2 23.3 16.1 56% 75.79 1009.5
05 03:55 W 11 16.09 Fair CLR 17.2 7.2 52% 75.74 1009.0
05 02:55 NW 15 16.09 Fair CLR 18.9 6.7 45% 75.72 1008.6
05 01:55 N 15 16.09 Fair CLR 19.4 6.7 44% 75.69 1008.3
05 00:55 NW 13 16.09 Fair CLR 20.6 6.7 41% 75.69 1008.0
04 23:55 NW 15 16.09 Overcast OVC120 21.7 6.7 38% 75.62 1007.3
04 22:55 W 13 16.09 Mostly Cloudy BKN120 22.8 6.7 30 22.8 35% 75.59 1006.8
04 21:55 NW 17 16.09 Fair CLR 24.4 6.7 32% 25 75.57 1006.4
04 20:55 NW 24 16.09 Mostly Cloudy BKN110 26.1 6.7 29% 26 75.49 1005.5
04 19:55 N 6 16.09 A Few Clouds FEW110 27.8 3.9 22% 27 75.44 1004.7
04 18:55 Calm 16.09 Mostly Cloudy BKN110 30 4.4 20% 28 75.39 1004.1
04 17:55 SE 7 16.09 A Few Clouds FEW120 28.9 3.9 20% 27 75.39 1004.3
04 16:55 SE 7 16.09 Partly Cloudy SCT120 29.4 1.7 31.1 23.3 17% 28 75.39 1004.3
04 15:55 SW 11 16.09 Fair CLR 30.6 1.7 16% 29 75.41 1004.5
04 14:55 Calm 16.09 Fair CLR 29.4 2.2 17% 28 75.46 1005.2
04 13:55 Calm 16.09 Fair CLR 28.3 2.8 19% 27 75.51 1005.9
04 12:55 Vrbl 6 16.09 Fair CLR 27.8 2.8 20% 27 75.59 1006.8
04 11:55 Calm 16.09 Fair CLR 25.6 3.9 25% 25 75.64 1007.6
04 10:55 W 11 16.09 Fair CLR 23.3 3.9 23.3 13.3 28% 75.69 1008.3
04 09:55 W 9 16.09 Fair CLR 20.6 4.4 35% 75.72 1008.7
04 08:55 W 17 16.09 Fair CLR 18.3 5 42% 75.74 1009.0
04 07:55 W 13 16.09 Fair CLR 16.1 5.6 50% 75.74 1009.2
04 06:55 W 13 16.09 Fair CLR 14.4 5 53% 75.74 1009.0
04 05:55 W 13 16.09 Fair CLR 13.9 5 55% 75.69 1008.5
04 04:55 NW 7 16.09 Fair CLR 13.9 5.6 22.2 13.9 58% 75.69 1008.3
04 03:55 W 13 16.09 Fair CLR 15.6 5.6 52% 75.69 1008.2
04 02:55 W 15 16.09 Fair CLR 15.6 5.6 52% 75.69 1008.3
04 01:55 W 19 16.09 Fair CLR 17.8 5.6 45% 75.67 1008.0
04 00:55 W 9 16.09 Fair CLR 18.9 5 40% 75.67 1007.8
03 23:55 W 9 16.09 Fair CLR 20.6 5 36% 75.64 1007.6
03 22:55 NW 11 16.09 Fair CLR 21.7 5 29.4 20.6 34% 75.64 1007.6
03 21:55 NW 6 16.09 Fair CLR 22.2 4.4 31% 75.64 1007.6
03 20:55 Calm 16.09 Fair CLR 24.4 3.9 26% 25 75.59 1007.2
03 19:55 E 9 16.09 Fair CLR 25 6.1 30% 25 75.57 1006.8
03 18:55 SE 9 16.09 Fair CLR 27.8 5 23% 27 75.59 1006.9
03 17:55 Vrbl 9 16.09 Fair CLR 28.9 2.8 19% 27 75.62 1007.4
03 16:55 SE 13 16.09 Fair CLR 29.4 2.2 29.4 21.7 17% 28 75.67 1008.0
03 15:55 Calm 16.09 Fair CLR 28.9 1.7 17% 27 75.74 1008.8
03 14:55 SE 13 16.09 Fair CLR 29.4 2.2 17% 28 75.82 1009.9
03 13:55 S 11 16.09 Fair CLR 27.8 2.8 20% 27 75.87 1010.7
03 12:55 Vrbl 7 16.09 Fair CLR 26.1 4.4 25% 26 75.95 1011.6
03 11:55 Calm 16.09 Fair CLR 24.4 5.6 30% 25 76.02 1012.7
03 10:55 W 13 16.09 Fair CLR 21.7 5.6 21.7 11.7 35% 76.07 1013.4
03 09:55 W 19 16.09 Fair CLR 20 5 38% 76.1 1014.0
03 08:55 W 13 16.09 Fair CLR 17.2 5.6 47% 76.15 1014.8
03 07:55 W 22 16.09 Fair CLR 15 5 51% 76.17 1014.9
03 06:55 W 15 16.09 Fair CLR 12.8 5.6 62% 76.15 1014.8
03 05:55 W 11 16.09 Fair CLR 12.2 5.6 64% 76.15 1014.7
03 04:55 W 11 16.09 Fair CLR 12.8 5.6 18.9 12.8 62% 76.15 1014.7
03 03:55 NW 17 16.09 Fair CLR 15 5 51% 76.15 1014.6
03 02:55 Vrbl 6 16.09 Fair CLR 14.4 5.6 56% 76.15 1014.4
03 01:55 W 15 16.09 Fair CLR 15.6 6.1 53% 76.12 1014.2
03 00:55 W 13 16.09 Fair CLR 16.7 6.1 50% 76.1 1014.0
02 23:55 W 19 16.09 Fair CLR 18.9 5 40% 76.07 1013.7
02 22:55 W 6 16.09 Fair CLR 18.9 5.6 28.3 18.9 42% 76.05 1013.3
02 21:55 NW 9 16.09 Fair CLR 20.6 4.4 35% 76.05 1013.1
02 20:55 W 7 16.09 Fair CLR 22.2 5.6 34% 76 1012.6
02 19:55 NW 7 16.09 Fair CLR 24.4 6.7 32% 25 75.95 1011.9
02 18:55 W 11 16.09 Fair CLR 26.7 4.4 24% 26 75.95 1011.7
02 17:55 W 13 16.09 Fair CLR 27.2 3.3 21% 26 75.95 1011.8
02 16:55 NW 7 16.09 Fair CLR 27.2 3.3 27.8 21.1 21% 26 75.97 1012.0
Date Time (pdt) Wind (kph) Vis. (km) Weather Sky Cond. Air Dwpt Max. Min. Relative Humidity Wind Chill (°C) Heat Index (°C) altimeter (cm) sea level (mb) 1 hr 3 hr 6 hr
6 hour
Temperature (ºC) Pressure Precipitation (cm)